Time;durP1;ratioP1;P1;durP2;ratioP2;P2;SDS_P1;SDS_P2;PMS_P1;PMS_P2;Temp;Humidity;BMP_temperature;BMP_pressure;BME280_temperature;BME280_humidity;BME280_pressure;Samples;Min_cycle;Max_cycle;Signal;HPM_P1;HPM_P2
2023/10/10 00:00:35;;;;;;;;;;;;;;;27.28;43.20;94925.94;4972022;28;7616;-65
2023/10/10 00:03:17;;;;;;;;;;;;;;;27.27;43.23;94930.72;4956377;28;9104;-65
2023/10/10 00:05:44;;;;;;;;;;;;;;;27.28;43.37;94926.69;4962086;28;7228;-65
2023/10/10 00:08:44;;;;;;;;;;;;;;;27.28;43.30;94926.69;4952948;28;6969;-64
2023/10/10 00:11:14;;;;;;;;;;;;;;;27.28;43.64;94928.69;4891040;29;7456;-65
2023/10/10 00:13:42;;;;;;;;;;;;;;;27.26;43.46;94926.47;4889239;29;7228;-65
2023/10/10 00:16:19;;;;;;;;;;;;;;;27.29;43.11;94917.16;4907472;29;9428;-65
2023/10/10 00:18:49;;;;;;;;;;;;;;;27.26;43.68;94912.66;4895816;29;9077;-65
2023/10/10 00:21:23;;;;;;;;;;;;;;;27.27;42.88;94913.41;4912945;29;9584;-65
2023/10/10 00:23:55;;;;;;;;;;;;;;;27.27;43.44;94918.94;4913567;29;7314;-65
2023/10/10 00:26:30;;;;;;;;;;;;;;;27.26;43.49;94914.66;4909305;29;6995;-64
2023/10/10 00:29:13;;;;;;;;;;;;;;;27.27;43.40;94919.69;4924451;28;7171;-65
2023/10/10 00:31:45;;;;;;;;;;;;;;;27.26;43.34;94920.94;5007733;28;7050;-64
2023/10/10 00:34:12;;;;;;;;;;;;;;;27.26;43.15;94918.16;4986842;28;7279;-64
2023/10/10 00:36:41;;;;;;;;;;;;;;;27.23;43.13;94913.66;4994763;28;7169;-65
2023/10/10 00:44:19;;;;;;;;;;;;;;;27.22;43.21;94901.13;5017068;28;8928;-62
2023/10/10 00:46:51;;;;;;;;;;;;;;;27.22;43.26;94890.06;5035204;28;9196;-62
2023/10/10 00:49:26;;;;;;;;;;;;;;;27.22;43.42;94898.34;5064224;28;7325;-62
2023/10/10 00:51:55;;;;;;;;;;;;;;;27.23;43.06;94899.13;5051921;28;7222;-63
2023/10/10 00:54:43;;;;;;;;;;;;;;;27.20;43.31;94884.31;5066194;28;9244;-62
2023/10/10 00:57:27;;;;;;;;;;;;;;;27.19;43.00;94891.09;5072483;28;6915;-62
2023/10/10 00:59:58;;;;;;;;;;;;;;;27.20;43.29;94889.84;5048147;28;7264;-62
2023/10/10 01:03:03;;;;;;;;;;;;;;;27.20;43.59;94887.06;5055883;28;7249;-63
2023/10/10 01:05:52;;;;;;;;;;;;;;;27.19;43.53;94880.03;5054716;28;7003;-62
2023/10/10 01:08:59;;;;;;;;;;;;;;;27.21;43.35;94885.78;5047431;28;7393;-62
2023/10/10 01:11:42;;;;;;;;;;;;;;;27.21;43.86;94885.78;5082451;28;7714;-62
2023/10/10 01:14:16;;;;;;;;;;;;;;;27.21;43.58;94888.56;5049190;28;7365;-62
2023/10/10 01:17:00;;;;;;;;;;;;;;;27.19;43.54;94887.56;5040572;28;7061;-62
2023/10/10 01:19:44;;;;;;;;;;;;;;;27.19;43.16;94896.59;5042985;28;7220;-62
2023/10/10 01:22:22;;;;;;;;;;;;;;;27.20;43.18;94897.38;5065038;28;7358;-62
2023/10/10 01:24:53;;;;;;;;;;;;;;;27.21;43.86;94899.59;5067449;28;7888;-62
2023/10/10 01:27:23;;;;;;;;;;;;;;;27.19;43.25;94884.81;5062479;28;6993;-62
2023/10/10 01:30:01;;;;;;;;;;;;;;;27.19;43.30;94891.09;5070366;28;7484;-62
2023/10/10 01:33:14;;;;;;;;;;;;;;;27.17;43.38;94888.09;5056458;28;7274;-62
2023/10/10 01:35:42;;;;;;;;;;;;;;;27.18;43.27;94892.34;5073591;28;7320;-62
2023/10/10 01:38:41;;;;;;;;;;;;;;;27.15;43.07;94878.81;5054753;28;7214;-62
2023/10/10 01:41:38;;;;;;;;;;;;;;;27.18;43.29;94883.31;5056892;28;7003;-62
2023/10/10 01:44:12;;;;;;;;;;;;;;;27.17;43.43;94877.03;5056098;28;8724;-62
2023/10/10 01:46:51;;;;;;;;;;;;;;;27.17;43.43;94879.03;5038151;28;7196;-62
2023/10/10 01:49:29;;;;;;;;;;;;;;;27.16;43.29;94883.06;5066493;28;7243;-63
2023/10/10 01:52:03;;;;;;;;;;;;;;;27.15;43.11;94878.81;5049258;28;9126;-62
2023/10/10 01:54:41;;;;;;;;;;;;;;;27.13;43.34;94873.03;5048697;28;7400;-62
2023/10/10 02:00:59;;;;;;;;;;;;;;;27.18;43.41;94881.31;5024722;28;7028;-62
2023/10/10 02:03:36;;;;;;;;;;;;;;;27.13;43.51;94879.31;5013510;28;7131;-62
2023/10/10 02:06:26;;;;;;;;;;;;;;;27.12;43.32;94877.81;5023959;28;9138;-62
2023/10/10 02:09:11;;;;;;;;;;;;;;;27.15;43.83;94887.84;5012290;28;7509;-62
2023/10/10 02:11:53;;;;;;;;;;;;;;;27.15;43.20;94885.09;5012217;28;9044;-62
2023/10/10 02:15:11;;;;;;;;;;;;;;;27.17;43.10;94888.09;5044124;28;7084;-62
2023/10/10 02:17:55;;;;;;;;;;;;;;;27.16;43.35;94888.59;4977715;28;7369;-62
2023/10/10 02:23:34;;;;;;;;;;;;;;;27.14;43.33;94900.16;5003962;28;7042;-62
2023/10/10 02:26:28;;;;;;;;;;;;;;;27.15;43.28;94895.38;4987693;28;7246;-62
2023/10/10 02:32:12;;;;;;;;;;;;;;;27.11;43.59;94883.84;4996477;28;7287;-62
2023/10/10 02:34:51;;;;;;;;;;;;;;;27.09;43.69;94887.13;5002333;28;8213;-62
2023/10/10 02:37:45;;;;;;;;;;;;;;;27.09;43.46;94886.38;5013341;28;7030;-62
2023/10/10 02:40:51;;;;;;;;;;;;;;;27.09;43.44;94881.59;5051562;28;7362;-62
2023/10/10 02:43:33;;;;;;;;;;;;;;;27.10;43.09;94876.84;5028135;28;7159;-62
2023/10/10 02:46:05;;;;;;;;;;;;;;;27.06;43.11;94871.56;5028915;28;7205;-62
2023/10/10 02:48:55;;;;;;;;;;;;;;;27.07;43.16;94872.31;5033295;28;7364;-62
2023/10/10 02:51:40;;;;;;;;;;;;;;;27.08;43.68;94880.09;5020462;28;7666;-62
2023/10/10 02:54:10;;;;;;;;;;;;;;;27.08;43.44;94880.09;5042158;28;7249;-62
2023/10/10 02:56:43;;;;;;;;;;;;;;;27.09;43.57;94867.03;5060916;28;7321;-62
2023/10/10 02:59:30;;;;;;;;;;;;;;;27.08;43.38;94865.56;5044740;28;9494;-62
2023/10/10 03:02:30;;;;;;;;;;;;;;;27.08;43.39;94863.53;5067990;28;7321;-62
2023/10/10 03:07:53;;;;;;;;;;;;;;;27.08;43.38;94868.31;4998092;28;7192;-61
2023/10/10 03:10:41;;;;;;;;;;;;;;;27.08;42.99;94863.53;4930633;29;7320;-61
2023/10/10 03:13:14;;;;;;;;;;;;;;;27.06;43.41;94865.28;4943363;28;7354;-61
2023/10/10 03:15:51;;;;;;;;;;;;;;;27.07;43.70;94870.31;4949713;28;7373;-61
2023/10/10 03:18:29;;;;;;;;;;;;;;;27.07;43.16;94870.31;4953166;28;7235;-61
2023/10/10 03:23:43;;;;;;;;;;;;;;;27.05;43.49;94864.56;4944131;28;7222;-61
2023/10/10 03:26:18;;;;;;;;;;;;;;;27.07;43.48;94867.56;4955825;28;7390;-61
2023/10/10 03:28:49;;;;;;;;;;;;;;;27.07;43.38;94869.56;4952869;28;9026;-61
2023/10/10 03:31:47;;;;;;;;;;;;;;;27.06;43.46;94863.28;4926800;28;7328;-61
2023/10/10 03:34:35;;;;;;;;;;;;;;;27.05;43.47;94861.03;4938753;28;7290;-61
2023/10/10 03:37:22;;;;;;;;;;;;;;;27.05;43.30;94869.31;4933706;28;8544;-61
2023/10/10 03:40:21;;;;;;;;;;;;;;;27.04;43.45;94860.28;4943811;28;7268;-61
2023/10/10 05:23:47;;;;;;;;;;;;;;;26.94;42.98;94845.28;5004017;28;7184;-56
2023/10/10 05:26:30;;;;;;;;;;;;;;;26.94;43.14;94845.28;5027430;28;9226;-56
2023/10/10 05:28:57;;;;;;;;;;;;;;;26.95;43.03;94837.75;5058697;28;7044;-56
2023/10/10 05:31:24;;;;;;;;;;;;;;;26.93;43.50;94841.00;5034676;28;9050;-56
2023/10/10 05:33:50;;;;;;;;;;;;;;;26.95;43.30;94846.75;5056193;28;9182;-56
2023/10/10 05:36:24;;;;;;;;;;;;;;;26.93;42.76;94843.75;5084760;28;7302;-56
2023/10/10 05:38:50;;;;;;;;;;;;;;;26.93;43.35;94843.75;5067098;28;9269;-57
2023/10/10 05:41:22;;;;;;;;;;;;;;;26.92;43.44;94852.56;5082468;28;8710;-56
2023/10/10 05:43:49;;;;;;;;;;;;;;;26.87;43.44;94843.81;5052312;28;7278;-56
2023/10/10 05:46:25;;;;;;;;;;;;;;;26.90;43.54;94850.31;5054455;28;7208;-56
2023/10/10 05:49:11;;;;;;;;;;;;;;;26.89;43.27;94855.09;5073994;28;7043;-57
2023/10/10 05:51:42;;;;;;;;;;;;;;;26.88;42.93;94856.31;5054982;28;9071;-57
2023/10/10 05:54:11;;;;;;;;;;;;;;;26.89;43.35;94852.31;5048799;28;8750;-56
2023/10/10 05:57:10;;;;;;;;;;;;;;;26.91;43.40;94860.09;5058759;28;9086;-56
2023/10/10 06:00:14;;;;;;;;;;;;;;;26.89;43.45;94860.59;5039529;28;7267;-56
2023/10/10 06:03:13;;;;;;;;;;;;;;;26.89;43.36;94851.56;5012451;28;8845;-56
2023/10/10 06:05:49;;;;;;;;;;;;;;;26.90;43.49;94850.31;4928751;28;8924;-56
2023/10/10 06:08:32;;;;;;;;;;;;;;;26.89;43.18;94857.84;4949656;28;7094;-56
2023/10/10 06:11:06;;;;;;;;;;;;;;;26.88;43.30;94858.34;4955006;28;9164;-56
2023/10/10 06:13:38;;;;;;;;;;;;;;;26.88;43.68;94870.13;4954887;28;9013;-56
2023/10/10 06:16:19;;;;;;;;;;;;;;;26.88;43.27;94861.84;4953531;28;7524;-56
2023/10/10 06:18:50;;;;;;;;;;;;;;;26.86;43.48;94866.41;4938214;28;7217;-56
2023/10/10 06:21:34;;;;;;;;;;;;;;;26.85;43.33;94870.41;4938172;28;7083;-56
2023/10/10 06:24:08;;;;;;;;;;;;;;;26.87;43.33;94867.88;4954760;28;8850;-56
2023/10/10 06:26:37;;;;;;;;;;;;;;;26.86;43.27;94863.63;4954948;28;7405;-57
2023/10/10 06:29:08;;;;;;;;;;;;;;;26.89;42.85;94876.41;4954454;28;7018;-57
2023/10/10 06:31:49;;;;;;;;;;;;;;;26.90;43.45;94875.16;4950309;28;9044;-56
2023/10/10 06:34:34;;;;;;;;;;;;;;;26.87;43.22;94870.66;4940639;28;8112;-54
2023/10/10 06:37:07;;;;;;;;;;;;;;;26.90;42.95;94866.88;4948994;28;7008;-55
2023/10/10 06:39:34;;;;;;;;;;;;;;;26.89;42.97;94873.66;4957446;28;7239;-54
2023/10/10 06:42:03;;;;;;;;;;;;;;;26.90;43.33;94875.16;5017436;28;7274;-54
2023/10/10 06:44:32;;;;;;;;;;;;;;;26.87;43.25;94882.44;5062880;28;7052;-54
2023/10/10 06:47:08;;;;;;;;;;;;;;;26.88;43.27;94881.16;5038837;28;8824;-55
2023/10/10 06:49:44;;;;;;;;;;;;;;;26.89;43.26;94876.41;5061848;28;8949;-54
2023/10/10 06:52:43;;;;;;;;;;;;;;;26.87;43.58;94876.94;5051855;28;8924;-55
2023/10/10 06:55:22;;;;;;;;;;;;;;;26.86;43.22;94875.41;5009119;28;7110;-55
2023/10/10 06:58:18;;;;;;;;;;;;;;;26.86;43.56;94877.44;4973943;28;7219;-54
2023/10/10 07:00:47;;;;;;;;;;;;;;;26.84;43.41;94880.69;4973162;28;7136;-55
2023/10/10 07:03:30;;;;;;;;;;;;;;;26.85;43.78;94878.69;4951800;28;7227;-55
2023/10/10 07:05:58;;;;;;;;;;;;;;;26.88;43.90;94878.41;4970334;28;7246;-55
2023/10/10 07:08:34;;;;;;;;;;;;;;;26.87;43.36;94878.94;4941125;28;9189;-54
2023/10/10 07:11:40;;;;;;;;;;;;;;;26.89;43.44;94873.66;4962020;28;7432;-54
2023/10/10 07:14:12;;;;;;;;;;;;;;;26.86;43.65;94878.16;4915164;29;7219;-55
2023/10/10 07:17:11;;;;;;;;;;;;;;;26.86;43.55;94880.94;4901694;29;7244;-54
2023/10/10 07:22:36;;;;;;;;;;;;;;;26.89;43.27;94879.94;4911452;29;8707;-53
2023/10/10 07:25:07;;;;;;;;;;;;;;;26.89;43.59;94879.94;4905228;29;7039;-54
2023/10/10 07:27:41;;;;;;;;;;;;;;;26.91;43.38;94882.16;4896767;29;7179;-55
2023/10/10 07:30:33;;;;;;;;;;;;;;;26.92;43.17;94885.69;4905481;29;8811;-55
2023/10/10 07:33:03;;;;;;;;;;;;;;;26.92;42.86;94886.44;4944012;28;7328;-55
2023/10/10 07:35:35;;;;;;;;;;;;;;;26.91;43.21;94882.16;4967836;28;7117;-55
2023/10/10 07:38:30;;;;;;;;;;;;;;;26.92;43.18;94878.88;4994932;28;9120;-55
2023/10/10 07:41:21;;;;;;;;;;;;;;;26.96;43.51;94884.16;4993240;28;7523;-54
2023/10/10 07:43:52;;;;;;;;;;;;;;;26.94;43.39;94883.94;4985096;28;7263;-57
2023/10/10 07:49:51;;;;;;;;;;;;;;;26.97;43.44;94884.91;5001613;28;7237;-56
2023/10/10 07:52:20;;;;;;;;;;;;;;;26.93;43.35;94879.66;5027362;28;8741;-57
2023/10/10 07:54:59;;;;;;;;;;;;;;;26.96;43.37;94883.41;5002742;28;7401;-57
2023/10/10 07:57:59;;;;;;;;;;;;;;;26.95;43.40;94879.16;5003045;28;7169;-57
2023/10/10 08:00:38;;;;;;;;;;;;;;;26.96;43.21;94881.41;5004677;28;9173;-57
2023/10/10 08:03:31;;;;;;;;;;;;;;;26.97;43.30;94884.91;5006220;28;7263;-56
2023/10/10 08:06:35;;;;;;;;;;;;;;;26.96;43.12;94881.41;5012231;28;9146;-56
2023/10/10 08:11:55;;;;;;;;;;;;;;;26.95;43.12;94871.59;4975649;28;7276;-57
2023/10/10 08:14:29;;;;;;;;;;;;;;;26.96;43.32;94878.66;4967085;28;8869;-56
2023/10/10 08:16:59;;;;;;;;;;;;;;;26.97;43.39;94874.59;4968340;28;8765;-56
2023/10/10 08:19:33;;;;;;;;;;;;;;;26.94;43.41;94874.88;4962926;28;7011;-56
2023/10/10 08:22:28;;;;;;;;;;;;;;;26.99;43.07;94880.38;4965018;28;7302;-56
2023/10/10 08:24:56;;;;;;;;;;;;;;;26.98;43.03;94875.38;4968773;28;7252;-57
2023/10/10 08:27:22;;;;;;;;;;;;;;;26.98;42.88;94872.59;4968072;28;9197;-57
2023/10/10 08:29:57;;;;;;;;;;;;;;;26.98;43.19;94887.16;4982413;28;6984;-56
2023/10/10 08:32:31;;;;;;;;;;;;;;;26.99;43.18;94883.13;4992126;28;8864;-57
2023/10/10 08:34:59;;;;;;;;;;;;;;;26.96;43.43;94877.88;4997549;28;6997;-57
2023/10/10 08:37:29;;;;;;;;;;;;;;;26.99;43.27;94882.41;4970181;28;7062;-57
2023/10/10 08:40:15;;;;;;;;;;;;;;;26.98;43.53;94881.66;4995342;28;9123;-57
2023/10/10 08:42:59;;;;;;;;;;;;;;;26.99;43.20;94876.88;4974885;28;7383;-57
2023/10/10 08:46:18;;;;;;;;;;;;;;;26.98;43.27;94889.16;4970668;28;9133;-57
2023/10/10 08:48:49;;;;;;;;;;;;;;;26.98;43.03;94886.41;4990289;28;9077;-56
2023/10/10 08:51:15;;;;;;;;;;;;;;;26.99;43.15;94887.94;4973001;28;7265;-56
2023/10/10 08:54:15;;;;;;;;;;;;;;;26.95;43.17;94882.66;4966322;28;7045;-61
2023/10/10 08:57:02;;;;;;;;;;;;;;;26.97;42.75;94884.91;4959193;28;7168;-61
2023/10/10 08:59:31;;;;;;;;;;;;;;;26.99;43.26;94880.38;4974219;28;7471;-61
2023/10/10 09:02:15;;;;;;;;;;;;;;;27.01;43.18;94880.63;4992323;28;7282;-61
2023/10/10 09:04:42;;;;;;;;;;;;;;;27.01;42.93;94883.41;5011957;28;8798;-61
2023/10/10 09:07:19;;;;;;;;;;;;;;;27.01;43.25;94880.63;5024020;28;8797;-61
2023/10/10 09:10:04;;;;;;;;;;;;;;;26.97;43.05;94873.88;5019513;28;8498;-61
2023/10/10 09:12:56;;;;;;;;;;;;;;;26.99;43.08;94877.59;5028214;28;9175;-62
2023/10/10 09:15:25;;;;;;;;;;;;;;;26.99;43.03;94883.13;5007849;28;6971;-61
2023/10/10 09:18:12;;;;;;;;;;;;;;;26.99;43.61;94885.16;5035457;28;9621;-61
2023/10/10 09:20:45;;;;;;;;;;;;;;;27.00;43.35;94883.88;5015667;28;7332;-62
2023/10/10 09:23:25;;;;;;;;;;;;;;;27.00;43.52;94886.66;5012328;28;7296;-61
2023/10/10 09:26:12;;;;;;;;;;;;;;;27.00;43.21;94886.66;5010388;28;8818;-61
2023/10/10 09:28:48;;;;;;;;;;;;;;;27.00;43.12;94876.38;5002242;28;6998;-61
2023/10/10 09:31:31;;;;;;;;;;;;;;;27.02;43.21;94886.88;5010904;28;7010;-61
2023/10/10 09:34:02;;;;;;;;;;;;;;;27.01;43.36;94879.88;5050796;28;8596;-61
2023/10/10 09:36:37;;;;;;;;;;;;;;;26.98;43.58;94881.66;5069113;28;8840;-60
2023/10/10 09:39:26;;;;;;;;;;;;;;;27.01;43.28;94879.88;5062725;28;7225;-61
2023/10/10 09:44:56;;;;;;;;;;;;;;;27.01;43.38;94869.59;5065458;28;8879;-61
2023/10/10 09:47:56;;;;;;;;;;;;;;;26.99;43.38;94877.59;5072582;28;7299;-61
2023/10/10 09:52:58;;;;;;;;;;;;;;;27.00;43.26;94868.09;5076621;28;7055;-61
2023/10/10 09:55:44;;;;;;;;;;;;;;;27.02;43.44;94875.84;5071631;28;8895;-61
2023/10/10 09:58:28;;;;;;;;;;;;;;;27.03;43.11;94883.63;5065334;28;7414;-61
2023/10/10 10:01:04;;;;;;;;;;;;;;;27.04;43.27;94879.59;5056636;28;7264;-61
2023/10/10 10:03:54;;;;;;;;;;;;;;;27.03;43.19;94880.88;5061860;28;7266;-54
2023/10/10 10:07:12;;;;;;;;;;;;;;;27.05;43.14;94878.34;5061532;28;9155;-55
2023/10/10 10:10:09;;;;;;;;;;;;;;;27.04;43.02;94892.66;5058538;28;9134;-55
2023/10/10 10:13:09;;;;;;;;;;;;;;;27.06;43.19;94888.13;5064520;28;7302;-54
2023/10/10 10:15:50;;;;;;;;;;;;;;;27.06;43.24;94893.66;5060477;28;7256;-55
2023/10/10 10:18:29;;;;;;;;;;;;;;;27.04;43.35;94890.66;5070889;28;6971;-55
2023/10/10 10:21:32;;;;;;;;;;;;;;;27.07;43.14;94886.13;5077511;28;7578;-55
2023/10/10 10:24:16;;;;;;;;;;;;;;;27.07;43.46;94884.13;5022494;28;7221;-55
2023/10/10 10:27:25;;;;;;;;;;;;;;;27.08;43.37;94885.59;5002218;28;7231;-55
2023/10/10 10:33:02;;;;;;;;;;;;;;;27.07;43.44;94883.38;4973862;28;7224;-54
2023/10/10 10:35:57;;;;;;;;;;;;;;;27.08;43.43;94890.41;4973513;28;8938;-54
2023/10/10 10:38:34;;;;;;;;;;;;;;;27.08;43.51;94884.88;4957921;28;8813;-55
2023/10/10 10:41:16;;;;;;;;;;;;;;;27.10;43.08;94888.59;4957553;28;7265;-55
2023/10/10 10:44:08;;;;;;;;;;;;;;;27.10;43.18;94885.84;4963722;28;8819;-55
2023/10/10 10:47:04;;;;;;;;;;;;;;;27.10;43.10;94888.59;4974527;28;7385;-54
2023/10/10 10:49:55;;;;;;;;;;;;;;;27.09;43.29;94886.38;4976537;28;7335;-54
2023/10/10 10:53:05;;;;;;;;;;;;;;;27.13;43.16;94886.84;4956722;28;7251;-55
2023/10/10 10:55:39;;;;;;;;;;;;;;;27.14;43.17;94885.59;4966338;28;8267;-55
2023/10/10 10:58:28;;;;;;;;;;;;;;;27.11;43.33;94890.13;4969436;28;7518;-54
2023/10/10 11:01:16;;;;;;;;;;;;;;;27.15;43.65;94882.31;4978735;28;8289;-54
2023/10/10 11:04:26;;;;;;;;;;;;;;;27.18;43.15;94883.31;4981110;28;8876;-55
2023/10/10 11:07:07;;;;;;;;;;;;;;;27.19;43.32;94882.03;4923161;29;7032;-55
2023/10/10 11:10:06;;;;;;;;;;;;;;;27.18;43.32;94878.56;4946089;28;7053;-55
2023/10/10 11:12:49;;;;;;;;;;;;;;;27.17;43.55;94877.03;4972871;28;8755;-55
2023/10/10 11:15:16;;;;;;;;;;;;;;;27.21;43.23;94872.00;4950280;28;9097;-61
2023/10/10 11:18:24;;;;;;;;;;;;;;;27.22;43.22;94881.78;4972101;28;7253;-61
2023/10/10 11:21:08;;;;;;;;;;;;;;;27.24;42.73;94870.97;4905735;29;9271;-61
2023/10/10 11:23:47;;;;;;;;;;;;;;;27.22;42.98;94867.97;4898964;29;9153;-61
2023/10/10 11:26:34;;;;;;;;;;;;;;;27.21;43.30;94855.41;4894216;29;7133;-61
2023/10/10 11:29:27;;;;;;;;;;;;;;;27.24;43.10;94861.94;4899856;29;9084;-61
2023/10/10 11:34:49;;;;;;;;;;;;;;;27.24;43.34;94854.41;4853294;29;7144;-61
2023/10/10 11:37:59;;;;;;;;;;;;;;;27.27;43.27;94853.41;4853668;29;6987;-61
2023/10/10 11:42:59;;;;;;;;;;;;;;;27.27;43.09;94839.59;4877636;29;7221;-61
2023/10/10 11:45:50;;;;;;;;;;;;;;;27.25;43.42;94836.56;4916359;29;7046;-61
2023/10/10 11:48:41;;;;;;;;;;;;;;;27.29;43.10;94839.81;4904567;29;7442;-61
2023/10/10 11:51:12;;;;;;;;;;;;;;;27.30;43.37;94830.25;4922343;29;7358;-61
2023/10/10 11:53:48;;;;;;;;;;;;;;;27.29;43.40;94833.53;4908775;29;7318;-61
2023/10/10 11:57:04;;;;;;;;;;;;;;;27.32;43.21;94827.75;4929277;28;6972;-61
2023/10/10 11:59:44;;;;;;;;;;;;;;;27.32;43.41;94821.47;4905808;29;7297;-61
2023/10/10 12:02:16;;;;;;;;;;;;;;;27.33;43.28;94818.19;4898864;29;7731;-62
2023/10/10 12:04:44;;;;;;;;;;;;;;;27.37;43.04;94817.94;4905582;29;7260;-61
2023/10/10 12:07:14;;;;;;;;;;;;;;;27.40;42.76;94816.94;4908968;29;9154;-61
2023/10/10 12:09:44;;;;;;;;;;;;;;;27.38;43.39;94817.44;4908732;29;7433;-61
2023/10/10 12:12:11;;;;;;;;;;;;;;;27.39;43.32;94799.59;4975814;28;7260;-61
2023/10/10 12:15:01;;;;;;;;;;;;;;;27.41;43.15;94810.88;5014744;28;9141;-61
2023/10/10 12:17:39;;;;;;;;;;;;;;;27.41;43.64;94808.13;5012478;28;9226;-61
2023/10/10 12:20:16;;;;;;;;;;;;;;;27.44;43.30;94804.34;5013389;28;8815;-61
2023/10/10 12:22:54;;;;;;;;;;;;;;;27.44;42.63;94807.09;5021997;28;7058;-61
2023/10/10 12:25:20;;;;;;;;;;;;;;;27.46;43.28;94810.09;5025557;28;6928;-61
2023/10/10 12:27:46;;;;;;;;;;;;;;;27.47;42.70;94806.06;5015841;28;7340;-61
2023/10/10 12:30:19;;;;;;;;;;;;;;;27.49;43.16;94802.81;5007184;28;9709;-61
2023/10/10 12:32:53;;;;;;;;;;;;;;;27.51;43.27;94800.28;5020810;28;7153;-61
2023/10/10 12:35:58;;;;;;;;;;;;;;;27.52;43.38;94797.00;5022849;28;7074;-61
2023/10/10 12:38:32;;;;;;;;;;;;;;;27.53;43.49;94787.44;5040248;28;7384;-61
2023/10/10 12:40:58;;;;;;;;;;;;;;;27.52;43.73;94780.41;5039787;28;7248;-61
2023/10/10 12:43:40;;;;;;;;;;;;;;;27.57;43.16;94787.16;5072987;28;7214;-61
2023/10/10 12:46:09;;;;;;;;;;;;;;;27.59;43.26;94787.41;5062163;28;6995;-61
2023/10/10 12:48:39;;;;;;;;;;;;;;;27.60;43.07;94786.13;5066320;28;6993;-60
2023/10/10 12:51:25;;;;;;;;;;;;;;;27.59;43.15;94782.63;5072403;28;7388;-61
2023/10/10 12:54:21;;;;;;;;;;;;;;;27.62;43.23;94787.09;5082564;28;7269;-60
2023/10/10 12:57:05;;;;;;;;;;;;;;;27.61;43.04;94780.09;5020400;28;7204;-61
2023/10/10 12:59:46;;;;;;;;;;;;;;;27.63;43.23;94785.84;5008848;28;8769;-61
2023/10/10 13:02:32;;;;;;;;;;;;;;;27.64;43.24;94783.84;5017260;28;8793;-61
2023/10/10 13:05:11;;;;;;;;;;;;;;;27.64;43.10;94776.28;5034541;28;7753;-61
2023/10/10 13:07:43;;;;;;;;;;;;;;;27.66;43.19;94777.81;5038005;28;8284;-61
2023/10/10 13:10:38;;;;;;;;;;;;;;;27.68;43.29;94775.28;5034167;28;7055;-61
2023/10/10 13:13:26;;;;;;;;;;;;;;;27.68;42.93;94770.50;5029607;28;7024;-61
2023/10/10 13:18:49;;;;;;;;;;;;;;;27.70;43.39;94761.69;5031768;28;9467;-61
2023/10/10 13:21:16;;;;;;;;;;;;;;;27.70;43.45;94767.97;5037324;28;7267;-61
2023/10/10 13:23:43;;;;;;;;;;;;;;;27.70;42.79;94767.97;5031275;28;7003;-62
2023/10/10 13:26:27;;;;;;;;;;;;;;;27.72;43.12;94770.19;5037792;28;7437;-62
2023/10/10 13:29:21;;;;;;;;;;;;;;;27.71;43.11;94766.69;5016824;28;6978;-60
2023/10/10 13:31:57;;;;;;;;;;;;;;;27.71;42.97;94763.91;5017321;28;9209;-61
2023/10/10 13:34:37;;;;;;;;;;;;;;;27.70;43.37;94767.22;5073381;28;7218;-63
2023/10/10 13:37:07;;;;;;;;;;;;;;;27.73;42.82;94766.19;5052277;28;7199;-63
2023/10/10 13:39:43;;;;;;;;;;;;;;;27.73;43.27;94761.38;5053598;28;8776;-63
2023/10/10 13:42:10;;;;;;;;;;;;;;;27.74;43.24;94760.13;5079859;28;7080;-63
2023/10/10 13:44:36;;;;;;;;;;;;;;;27.77;43.41;94761.13;5056811;28;7874;-64
2023/10/10 13:47:07;;;;;;;;;;;;;;;27.77;42.80;94759.13;5053969;28;8783;-63
2023/10/10 13:49:34;;;;;;;;;;;;;;;27.74;42.86;94751.84;5065220;28;7374;-63
2023/10/10 13:52:17;;;;;;;;;;;;;;;27.80;43.06;94760.81;5063292;28;7547;-63
2023/10/10 13:55:05;;;;;;;;;;;;;;;27.82;42.88;94765.84;5057919;28;8670;-63
2023/10/10 13:57:43;;;;;;;;;;;;;;;27.84;43.34;94761.28;5057914;28;8965;-63
2023/10/10 14:00:33;;;;;;;;;;;;;;;27.83;43.15;94757.03;5063737;28;8817;-63
2023/10/10 14:03:06;;;;;;;;;;;;;;;27.86;42.41;94769.09;5064234;28;7303;-63
2023/10/10 14:05:36;;;;;;;;;;;;;;;27.85;42.99;94762.03;5049819;28;7003;-63
2023/10/10 14:08:17;;;;;;;;;;;;;;;27.85;43.45;94762.03;5062603;28;7251;-63
2023/10/10 14:11:21;;;;;;;;;;;;;;;27.89;42.64;94756.97;5062939;28;9165;-63
2023/10/10 14:13:59;;;;;;;;;;;;;;;27.88;43.38;94753.47;5054478;28;7088;-63
2023/10/10 14:16:44;;;;;;;;;;;;;;;27.90;42.66;94753.72;5037983;28;7058;-63
2023/10/10 14:19:10;;;;;;;;;;;;;;;27.91;43.08;94748.91;5055890;28;7554;-63
2023/10/10 14:22:10;;;;;;;;;;;;;;;27.92;42.77;94755.94;5054915;28;7397;-63
2023/10/10 14:24:42;;;;;;;;;;;;;;;27.94;43.55;94751.41;4996408;28;7183;-63
2023/10/10 14:27:20;;;;;;;;;;;;;;;27.94;42.66;94748.66;4990433;28;7260;-63
2023/10/10 14:30:04;;;;;;;;;;;;;;;27.96;42.71;94748.13;4979348;28;7085;-63
2023/10/10 14:32:30;;;;;;;;;;;;;;;27.99;42.67;94749.88;4993769;28;7251;-63
2023/10/10 14:35:08;;;;;;;;;;;;;;;28.00;42.92;94752.13;4996712;28;7261;-63
2023/10/10 14:37:46;;;;;;;;;;;;;;;27.99;43.01;94750.59;5003177;28;9147;-63
2023/10/10 14:40:34;;;;;;;;;;;;;;;28.00;42.93;94751.38;4977594;28;7323;-63
2023/10/10 14:43:10;;;;;;;;;;;;;;;28.03;42.33;94751.09;5007385;28;8750;-62
2023/10/10 14:45:51;;;;;;;;;;;;;;;28.04;42.91;94749.81;4993452;28;7173;-63
2023/10/10 14:48:33;;;;;;;;;;;;;;;28.04;42.97;94746.28;5001617;28;7220;-63
2023/10/10 14:51:48;;;;;;;;;;;;;;;28.03;42.80;94742.81;5007218;28;7022;-63
2023/10/10 14:54:37;;;;;;;;;;;;;;;28.04;42.94;94747.06;4986063;28;7131;-63
2023/10/10 14:57:04;;;;;;;;;;;;;;;28.02;42.60;94748.84;4996519;28;7063;-63
2023/10/10 14:59:48;;;;;;;;;;;;;;;28.00;42.77;94740.31;4997769;28;7001;-63
2023/10/10 15:02:18;;;;;;;;;;;;;;;28.01;42.62;94752.88;5056040;28;9169;-63
2023/10/10 15:04:50;;;;;;;;;;;;;;;28.01;43.19;94744.59;5062491;28;6985;-64
2023/10/10 15:07:18;;;;;;;;;;;;;;;28.00;43.00;94751.38;5056214;28;7586;-63
2023/10/10 15:09:57;;;;;;;;;;;;;;;28.00;42.78;94757.66;5066200;28;7322;-63
2023/10/10 15:12:30;;;;;;;;;;;;;;;27.99;43.01;94749.88;5089187;28;9362;-63
2023/10/10 15:15:16;;;;;;;;;;;;;;;27.97;42.51;94744.84;5069900;28;7259;-63
2023/10/10 15:17:42;;;;;;;;;;;;;;;27.97;42.88;94749.63;5059410;28;7058;-63
2023/10/10 15:20:27;;;;;;;;;;;;;;;27.99;42.53;94753.38;5053436;28;7004;-63
2023/10/10 15:22:58;;;;;;;;;;;;;;;27.97;42.95;94753.16;5036626;28;7257;-63
2023/10/10 15:25:26;;;;;;;;;;;;;;;27.99;43.19;94753.38;5066395;28;6998;-63
2023/10/10 15:27:54;;;;;;;;;;;;;;;27.98;42.71;94756.66;5068664;28;7028;-63
2023/10/10 15:30:41;;;;;;;;;;;;;;;28.00;43.11;94756.91;5060112;28;7236;-63
2023/10/10 15:33:10;;;;;;;;;;;;;;;28.00;43.26;94754.13;5060228;28;8711;-63
2023/10/10 15:35:57;;;;;;;;;;;;;;;28.01;43.32;94750.13;5055122;28;8745;-64
2023/10/10 15:38:49;;;;;;;;;;;;;;;28.02;42.63;94760.66;5071590;28;7060;-63
2023/10/10 15:41:49;;;;;;;;;;;;;;;28.04;43.00;94760.88;5018923;28;7230;-63
2023/10/10 15:44:15;;;;;;;;;;;;;;;28.05;42.98;94758.88;4919110;29;9185;-63
2023/10/10 15:47:14;;;;;;;;;;;;;;;28.06;42.87;94754.81;4916016;29;7190;-63
2023/10/10 15:50:00;;;;;;;;;;;;;;;28.04;43.32;94754.59;4884008;29;7447;-64
2023/10/10 15:52:33;;;;;;;;;;;;;;;28.08;43.09;94750.28;4858604;29;9180;-63
2023/10/10 15:55:37;;;;;;;;;;;;;;;28.08;43.13;94752.28;4876346;29;7277;-65
2023/10/10 15:58:13;;;;;;;;;;;;;;;28.09;43.06;94753.78;4778501;29;7462;-65
2023/10/10 16:00:39;;;;;;;;;;;;;;;28.08;43.05;94755.03;4791144;29;9160;-64
2023/10/10 16:03:16;;;;;;;;;;;;;;;28.09;43.03;94753.78;4782359;29;7136;-65
2023/10/10 16:05:42;;;;;;;;;;;;;;;28.07;42.66;94754.31;4784364;29;7318;-65
2023/10/10 16:08:12;;;;;;;;;;;;;;;28.03;43.24;94753.88;4783109;29;9540;-65
2023/10/10 16:10:49;;;;;;;;;;;;;;;28.02;42.99;94755.13;4792310;29;7308;-65
2023/10/10 16:13:18;;;;;;;;;;;;;;;28.03;43.09;94764.16;4786157;29;8808;-65
2023/10/10 16:15:56;;;;;;;;;;;;;;;27.99;42.61;94758.19;4794680;29;7375;-65
2023/10/10 16:18:24;;;;;;;;;;;;;;;27.98;42.80;94753.91;4766816;30;7350;-65
2023/10/10 16:20:55;;;;;;;;;;;;;;;27.98;42.91;94756.66;4815011;29;6986;-65
2023/10/10 16:23:23;;;;;;;;;;;;;;;27.97;43.06;94752.41;4856765;29;6991;-65
2023/10/10 16:25:50;;;;;;;;;;;;;;;27.96;43.18;94764.72;4924123;28;7294;-65
2023/10/10 16:28:22;;;;;;;;;;;;;;;27.94;42.79;94762.47;4935434;28;7334;-65
2023/10/10 16:30:53;;;;;;;;;;;;;;;27.94;42.62;94758.94;4928568;29;9026;-65
2023/10/10 16:33:25;;;;;;;;;;;;;;;27.92;42.47;94751.19;5051107;28;7075;-65